sensor_id;sensor_type;location;lat;lon;timestamp;P1;durP1;ratioP1;P2;durP2;ratioP2
19867;SDS011;10096;51.112;6.776;2022-12-07T00:00:53;24.20;;;18.00;;
19867;SDS011;10096;51.112;6.776;2022-12-07T00:03:20;22.60;;;18.17;;
19867;SDS011;10096;51.112;6.776;2022-12-07T00:05:47;20.67;;;17.50;;
19867;SDS011;10096;51.112;6.776;2022-12-07T00:08:14;21.37;;;18.93;;
19867;SDS011;10096;51.112;6.776;2022-12-07T00:10:41;21.37;;;17.93;;
19867;SDS011;10096;51.112;6.776;2022-12-07T00:13:07;21.73;;;17.57;;
19867;SDS011;10096;51.112;6.776;2022-12-07T00:15:34;23.30;;;17.83;;
19867;SDS011;10096;51.112;6.776;2022-12-07T00:18:03;21.27;;;17.23;;
19867;SDS011;10096;51.112;6.776;2022-12-07T00:20:30;19.33;;;17.20;;
19867;SDS011;10096;51.112;6.776;2022-12-07T00:22:58;21.90;;;17.07;;
19867;SDS011;10096;51.112;6.776;2022-12-07T00:25:25;21.43;;;17.10;;
19867;SDS011;10096;51.112;6.776;2022-12-07T00:27:52;25.77;;;17.50;;
19867;SDS011;10096;51.112;6.776;2022-12-07T00:30:21;22.80;;;17.47;;
19867;SDS011;10096;51.112;6.776;2022-12-07T00:32:48;20.93;;;18.27;;
19867;SDS011;10096;51.112;6.776;2022-12-07T00:35:17;22.07;;;17.97;;
19867;SDS011;10096;51.112;6.776;2022-12-07T00:37:44;21.03;;;17.90;;
19867;SDS011;10096;51.112;6.776;2022-12-07T00:40:11;20.70;;;16.87;;
19867;SDS011;10096;51.112;6.776;2022-12-07T00:42:39;20.60;;;17.50;;
19867;SDS011;10096;51.112;6.776;2022-12-07T00:45:06;21.13;;;16.97;;
19867;SDS011;10096;51.112;6.776;2022-12-07T00:47:34;22.23;;;16.33;;
19867;SDS011;10096;51.112;6.776;2022-12-07T00:50:01;19.37;;;16.63;;
19867;SDS011;10096;51.112;6.776;2022-12-07T00:52:30;22.50;;;17.63;;
19867;SDS011;10096;51.112;6.776;2022-12-07T00:54:57;22.60;;;17.43;;
19867;SDS011;10096;51.112;6.776;2022-12-07T00:57:24;21.73;;;17.57;;
19867;SDS011;10096;51.112;6.776;2022-12-07T00:59:51;23.27;;;18.60;;
19867;SDS011;10096;51.112;6.776;2022-12-07T01:02:20;22.30;;;18.50;;
19867;SDS011;10096;51.112;6.776;2022-12-07T01:04:47;24.00;;;17.60;;
19867;SDS011;10096;51.112;6.776;2022-12-07T01:07:14;22.37;;;18.40;;
19867;SDS011;10096;51.112;6.776;2022-12-07T01:09:43;24.63;;;19.73;;
19867;SDS011;10096;51.112;6.776;2022-12-07T01:12:10;23.83;;;20.00;;
19867;SDS011;10096;51.112;6.776;2022-12-07T01:14:37;23.77;;;20.77;;
19867;SDS011;10096;51.112;6.776;2022-12-07T01:17:04;24.03;;;20.37;;
19867;SDS011;10096;51.112;6.776;2022-12-07T01:19:31;26.60;;;21.17;;
19867;SDS011;10096;51.112;6.776;2022-12-07T01:21:58;25.90;;;21.47;;
19867;SDS011;10096;51.112;6.776;2022-12-07T01:24:25;24.00;;;21.03;;
19867;SDS011;10096;51.112;6.776;2022-12-07T01:26:54;28.17;;;21.37;;
19867;SDS011;10096;51.112;6.776;2022-12-07T01:29:21;28.40;;;21.43;;
19867;SDS011;10096;51.112;6.776;2022-12-07T01:31:48;25.37;;;21.87;;
19867;SDS011;10096;51.112;6.776;2022-12-07T01:34:16;31.73;;;22.77;;
19867;SDS011;10096;51.112;6.776;2022-12-07T01:36:43;29.10;;;23.13;;
19867;SDS011;10096;51.112;6.776;2022-12-07T01:39:10;28.33;;;22.37;;
19867;SDS011;10096;51.112;6.776;2022-12-07T01:41:38;26.67;;;21.73;;
19867;SDS011;10096;51.112;6.776;2022-12-07T01:46:55;27.57;;;22.27;;
19867;SDS011;10096;51.112;6.776;2022-12-07T01:49:25;30.87;;;22.70;;
19867;SDS011;10096;51.112;6.776;2022-12-07T01:51:57;27.10;;;22.43;;
19867;SDS011;10096;51.112;6.776;2022-12-07T01:54:39;27.63;;;23.03;;
19867;SDS011;10096;51.112;6.776;2022-12-07T01:57:07;29.43;;;23.80;;
19867;SDS011;10096;51.112;6.776;2022-12-07T01:59:36;30.43;;;23.80;;
19867;SDS011;10096;51.112;6.776;2022-12-07T02:02:05;29.17;;;22.97;;
19867;SDS011;10096;51.112;6.776;2022-12-07T02:04:36;32.60;;;25.00;;
19867;SDS011;10096;51.112;6.776;2022-12-07T02:07:03;34.30;;;24.17;;
19867;SDS011;10096;51.112;6.776;2022-12-07T02:09:31;28.83;;;23.17;;
19867;SDS011;10096;51.112;6.776;2022-12-07T02:11:58;29.80;;;23.83;;
19867;SDS011;10096;51.112;6.776;2022-12-07T02:14:25;29.90;;;23.60;;
19867;SDS011;10096;51.112;6.776;2022-12-07T02:16:57;28.37;;;23.00;;
19867;SDS011;10096;51.112;6.776;2022-12-07T02:19:48;31.27;;;25.13;;
19867;SDS011;10096;51.112;6.776;2022-12-07T02:22:52;30.20;;;24.17;;
19867;SDS011;10096;51.112;6.776;2022-12-07T02:25:51;31.83;;;24.43;;
19867;SDS011;10096;51.112;6.776;2022-12-07T02:28:29;29.57;;;23.70;;
19867;SDS011;10096;51.112;6.776;2022-12-07T02:31:04;31.43;;;24.83;;
19867;SDS011;10096;51.112;6.776;2022-12-07T02:33:36;32.77;;;25.73;;
19867;SDS011;10096;51.112;6.776;2022-12-07T02:36:08;34.03;;;26.30;;
19867;SDS011;10096;51.112;6.776;2022-12-07T02:38:39;30.33;;;24.47;;
19867;SDS011;10096;51.112;6.776;2022-12-07T02:41:15;28.23;;;23.83;;
19867;SDS011;10096;51.112;6.776;2022-12-07T02:43:47;31.40;;;24.77;;
19867;SDS011;10096;51.112;6.776;2022-12-07T02:46:20;32.07;;;24.43;;
19867;SDS011;10096;51.112;6.776;2022-12-07T02:48:49;31.13;;;24.57;;
19867;SDS011;10096;51.112;6.776;2022-12-07T02:51:17;30.67;;;24.00;;
19867;SDS011;10096;51.112;6.776;2022-12-07T02:53:44;30.17;;;24.63;;
19867;SDS011;10096;51.112;6.776;2022-12-07T02:56:13;33.57;;;24.70;;
19867;SDS011;10096;51.112;6.776;2022-12-07T02:58:56;34.87;;;26.40;;
19867;SDS011;10096;51.112;6.776;2022-12-07T03:01:36;29.77;;;26.07;;
19867;SDS011;10096;51.112;6.776;2022-12-07T03:04:12;30.60;;;24.83;;
19867;SDS011;10096;51.112;6.776;2022-12-07T03:06:51;30.70;;;24.07;;
19867;SDS011;10096;51.112;6.776;2022-12-07T03:09:24;32.43;;;25.80;;
19867;SDS011;10096;51.112;6.776;2022-12-07T03:11:58;31.20;;;24.37;;
19867;SDS011;10096;51.112;6.776;2022-12-07T03:14:33;30.00;;;24.37;;
19867;SDS011;10096;51.112;6.776;2022-12-07T03:17:08;27.67;;;24.33;;
19867;SDS011;10096;51.112;6.776;2022-12-07T03:19:40;34.13;;;26.13;;
19867;SDS011;10096;51.112;6.776;2022-12-07T03:22:10;32.90;;;25.83;;
19867;SDS011;10096;51.112;6.776;2022-12-07T03:24:40;33.60;;;25.63;;
19867;SDS011;10096;51.112;6.776;2022-12-07T03:27:11;32.93;;;25.60;;
19867;SDS011;10096;51.112;6.776;2022-12-07T03:29:42;30.03;;;24.37;;
19867;SDS011;10096;51.112;6.776;2022-12-07T03:32:16;29.10;;;24.37;;
19867;SDS011;10096;51.112;6.776;2022-12-07T03:34:52;34.57;;;25.63;;
19867;SDS011;10096;51.112;6.776;2022-12-07T03:37:26;32.10;;;24.60;;
19867;SDS011;10096;51.112;6.776;2022-12-07T03:39:59;28.83;;;24.10;;
19867;SDS011;10096;51.112;6.776;2022-12-07T03:42:33;32.80;;;25.50;;
19867;SDS011;10096;51.112;6.776;2022-12-07T03:45:00;34.47;;;24.93;;
19867;SDS011;10096;51.112;6.776;2022-12-07T03:47:31;28.43;;;24.40;;
19867;SDS011;10096;51.112;6.776;2022-12-07T03:50:02;31.17;;;24.50;;
19867;SDS011;10096;51.112;6.776;2022-12-07T03:52:38;29.13;;;24.83;;
19867;SDS011;10096;51.112;6.776;2022-12-07T03:55:08;28.93;;;23.23;;
19867;SDS011;10096;51.112;6.776;2022-12-07T03:57:41;31.17;;;24.60;;
19867;SDS011;10096;51.112;6.776;2022-12-07T04:00:11;28.00;;;23.47;;
19867;SDS011;10096;51.112;6.776;2022-12-07T04:02:41;29.27;;;22.17;;
19867;SDS011;10096;51.112;6.776;2022-12-07T04:05:09;29.10;;;24.27;;
19867;SDS011;10096;51.112;6.776;2022-12-07T04:07:36;25.23;;;22.20;;
19867;SDS011;10096;51.112;6.776;2022-12-07T04:10:04;28.43;;;23.60;;
19867;SDS011;10096;51.112;6.776;2022-12-07T04:12:32;27.10;;;23.73;;
19867;SDS011;10096;51.112;6.776;2022-12-07T04:14:59;29.67;;;23.37;;
19867;SDS011;10096;51.112;6.776;2022-12-07T04:17:26;29.30;;;24.07;;
19867;SDS011;10096;51.112;6.776;2022-12-07T04:19:54;27.43;;;22.83;;
19867;SDS011;10096;51.112;6.776;2022-12-07T04:22:21;29.53;;;25.40;;
19867;SDS011;10096;51.112;6.776;2022-12-07T04:24:48;28.10;;;23.57;;
19867;SDS011;10096;51.112;6.776;2022-12-07T04:27:16;30.73;;;24.43;;
19867;SDS011;10096;51.112;6.776;2022-12-07T04:29:43;29.33;;;25.50;;
19867;SDS011;10096;51.112;6.776;2022-12-07T04:32:10;31.00;;;24.43;;
19867;SDS011;10096;51.112;6.776;2022-12-07T04:34:37;30.13;;;23.53;;
19867;SDS011;10096;51.112;6.776;2022-12-07T04:37:06;31.27;;;26.07;;
19867;SDS011;10096;51.112;6.776;2022-12-07T04:39:33;30.13;;;25.37;;
19867;SDS011;10096;51.112;6.776;2022-12-07T04:42:00;30.63;;;23.97;;
19867;SDS011;10096;51.112;6.776;2022-12-07T04:44:28;28.60;;;24.67;;
19867;SDS011;10096;51.112;6.776;2022-12-07T04:46:56;32.47;;;23.93;;
19867;SDS011;10096;51.112;6.776;2022-12-07T04:49:24;29.80;;;23.80;;
19867;SDS011;10096;51.112;6.776;2022-12-07T04:51:51;28.90;;;23.67;;
19867;SDS011;10096;51.112;6.776;2022-12-07T04:54:20;29.57;;;23.03;;
19867;SDS011;10096;51.112;6.776;2022-12-07T04:56:47;26.67;;;22.23;;
19867;SDS011;10096;51.112;6.776;2022-12-07T04:59:14;27.03;;;22.17;;
19867;SDS011;10096;51.112;6.776;2022-12-07T05:01:43;28.10;;;21.27;;
19867;SDS011;10096;51.112;6.776;2022-12-07T05:04:10;26.80;;;21.80;;
19867;SDS011;10096;51.112;6.776;2022-12-07T05:06:39;24.97;;;21.30;;
19867;SDS011;10096;51.112;6.776;2022-12-07T05:09:06;24.87;;;20.57;;
19867;SDS011;10096;51.112;6.776;2022-12-07T05:11:35;26.07;;;20.57;;
19867;SDS011;10096;51.112;6.776;2022-12-07T05:14:06;23.93;;;20.07;;
19867;SDS011;10096;51.112;6.776;2022-12-07T05:16:35;24.80;;;20.97;;
19867;SDS011;10096;51.112;6.776;2022-12-07T05:19:03;24.23;;;20.87;;
19867;SDS011;10096;51.112;6.776;2022-12-07T05:21:30;26.80;;;20.07;;
19867;SDS011;10096;51.112;6.776;2022-12-07T05:23:57;21.70;;;19.20;;
19867;SDS011;10096;51.112;6.776;2022-12-07T05:26:24;21.97;;;18.60;;
19867;SDS011;10096;51.112;6.776;2022-12-07T05:28:53;22.07;;;18.83;;
19867;SDS011;10096;51.112;6.776;2022-12-07T05:31:22;21.70;;;18.30;;
19867;SDS011;10096;51.112;6.776;2022-12-07T05:33:50;22.83;;;18.73;;
19867;SDS011;10096;51.112;6.776;2022-12-07T05:36:17;24.57;;;18.93;;
19867;SDS011;10096;51.112;6.776;2022-12-07T05:38:44;22.60;;;18.23;;
19867;SDS011;10096;51.112;6.776;2022-12-07T05:41:12;22.57;;;19.47;;
19867;SDS011;10096;51.112;6.776;2022-12-07T05:43:56;24.50;;;19.07;;
19867;SDS011;10096;51.112;6.776;2022-12-07T05:46:23;20.57;;;16.50;;
19867;SDS011;10096;51.112;6.776;2022-12-07T05:48:50;20.80;;;16.97;;
19867;SDS011;10096;51.112;6.776;2022-12-07T05:51:17;21.13;;;17.27;;
19867;SDS011;10096;51.112;6.776;2022-12-07T05:53:45;21.23;;;17.63;;
19867;SDS011;10096;51.112;6.776;2022-12-07T05:56:12;21.53;;;17.17;;
19867;SDS011;10096;51.112;6.776;2022-12-07T05:58:39;21.37;;;16.73;;
19867;SDS011;10096;51.112;6.776;2022-12-07T06:01:25;19.87;;;17.07;;
19867;SDS011;10096;51.112;6.776;2022-12-07T06:03:54;18.53;;;16.37;;
19867;SDS011;10096;51.112;6.776;2022-12-07T06:06:21;22.03;;;17.63;;
19867;SDS011;10096;51.112;6.776;2022-12-07T06:08:48;23.33;;;18.70;;
19867;SDS011;10096;51.112;6.776;2022-12-07T06:11:16;22.27;;;18.83;;
19867;SDS011;10096;51.112;6.776;2022-12-07T06:14:00;21.80;;;19.50;;
19867;SDS011;10096;51.112;6.776;2022-12-07T06:16:29;23.97;;;19.83;;
19867;SDS011;10096;51.112;6.776;2022-12-07T06:18:56;23.53;;;20.73;;
19867;SDS011;10096;51.112;6.776;2022-12-07T06:21:23;23.40;;;19.20;;
19867;SDS011;10096;51.112;6.776;2022-12-07T06:23:50;23.07;;;19.77;;
19867;SDS011;10096;51.112;6.776;2022-12-07T06:26:17;24.07;;;19.40;;
19867;SDS011;10096;51.112;6.776;2022-12-07T06:28:45;25.23;;;20.43;;
19867;SDS011;10096;51.112;6.776;2022-12-07T06:31:12;23.67;;;19.63;;
19867;SDS011;10096;51.112;6.776;2022-12-07T06:33:41;21.47;;;17.90;;
19867;SDS011;10096;51.112;6.776;2022-12-07T06:36:08;20.17;;;16.80;;
19867;SDS011;10096;51.112;6.776;2022-12-07T06:38:36;20.80;;;17.23;;
19867;SDS011;10096;51.112;6.776;2022-12-07T06:41:04;20.00;;;17.20;;
19867;SDS011;10096;51.112;6.776;2022-12-07T06:43:32;22.20;;;17.97;;
19867;SDS011;10096;51.112;6.776;2022-12-07T06:46:00;20.40;;;17.23;;
19867;SDS011;10096;51.112;6.776;2022-12-07T06:48:28;19.17;;;17.03;;
19867;SDS011;10096;51.112;6.776;2022-12-07T06:50:56;25.03;;;17.33;;
19867;SDS011;10096;51.112;6.776;2022-12-07T06:53:23;21.63;;;18.17;;
19867;SDS011;10096;51.112;6.776;2022-12-07T06:55:51;21.77;;;19.10;;
19867;SDS011;10096;51.112;6.776;2022-12-07T06:58:18;22.47;;;18.80;;
19867;SDS011;10096;51.112;6.776;2022-12-07T07:00:45;21.80;;;18.23;;
19867;SDS011;10096;51.112;6.776;2022-12-07T07:03:14;21.93;;;18.57;;
19867;SDS011;10096;51.112;6.776;2022-12-07T07:05:41;21.50;;;17.60;;
19867;SDS011;10096;51.112;6.776;2022-12-07T07:08:10;22.97;;;18.93;;
19867;SDS011;10096;51.112;6.776;2022-12-07T07:10:38;22.93;;;19.10;;
19867;SDS011;10096;51.112;6.776;2022-12-07T07:13:06;23.87;;;20.33;;
19867;SDS011;10096;51.112;6.776;2022-12-07T07:15:36;22.80;;;18.33;;
19867;SDS011;10096;51.112;6.776;2022-12-07T07:18:05;23.47;;;18.50;;
19867;SDS011;10096;51.112;6.776;2022-12-07T07:20:32;21.93;;;18.73;;
19867;SDS011;10096;51.112;6.776;2022-12-07T07:22:59;24.13;;;18.47;;
19867;SDS011;10096;51.112;6.776;2022-12-07T07:25:28;23.90;;;19.33;;
19867;SDS011;10096;51.112;6.776;2022-12-07T07:27:56;23.00;;;18.53;;
19867;SDS011;10096;51.112;6.776;2022-12-07T07:30:23;20.93;;;18.63;;
19867;SDS011;10096;51.112;6.776;2022-12-07T07:32:51;24.20;;;19.80;;
19867;SDS011;10096;51.112;6.776;2022-12-07T07:35:18;24.27;;;19.23;;
19867;SDS011;10096;51.112;6.776;2022-12-07T07:37:45;22.47;;;19.60;;
19867;SDS011;10096;51.112;6.776;2022-12-07T07:40:12;22.93;;;18.53;;
19867;SDS011;10096;51.112;6.776;2022-12-07T07:42:40;21.93;;;17.93;;
19867;SDS011;10096;51.112;6.776;2022-12-07T07:45:08;24.93;;;17.90;;
19867;SDS011;10096;51.112;6.776;2022-12-07T07:47:35;21.47;;;17.90;;
19867;SDS011;10096;51.112;6.776;2022-12-07T07:50:03;24.60;;;18.40;;
19867;SDS011;10096;51.112;6.776;2022-12-07T07:52:30;21.70;;;16.90;;
19867;SDS011;10096;51.112;6.776;2022-12-07T07:54:57;20.53;;;17.03;;
19867;SDS011;10096;51.112;6.776;2022-12-07T07:57:25;20.90;;;17.57;;
19867;SDS011;10096;51.112;6.776;2022-12-07T07:59:55;20.60;;;16.93;;
19867;SDS011;10096;51.112;6.776;2022-12-07T08:02:22;25.97;;;17.13;;
19867;SDS011;10096;51.112;6.776;2022-12-07T08:04:49;19.97;;;17.47;;
19867;SDS011;10096;51.112;6.776;2022-12-07T08:07:16;24.50;;;16.57;;
19867;SDS011;10096;51.112;6.776;2022-12-07T08:09:43;21.50;;;16.30;;
19867;SDS011;10096;51.112;6.776;2022-12-07T08:12:11;20.77;;;15.87;;
19867;SDS011;10096;51.112;6.776;2022-12-07T08:14:38;17.83;;;15.97;;
19867;SDS011;10096;51.112;6.776;2022-12-07T08:17:06;27.73;;;17.87;;
19867;SDS011;10096;51.112;6.776;2022-12-07T08:19:34;17.83;;;14.87;;
19867;SDS011;10096;51.112;6.776;2022-12-07T08:22:03;17.40;;;15.47;;
19867;SDS011;10096;51.112;6.776;2022-12-07T08:24:32;20.77;;;16.53;;
19867;SDS011;10096;51.112;6.776;2022-12-07T08:26:59;98.67;;;66.60;;
19867;SDS011;10096;51.112;6.776;2022-12-07T08:29:26;17.47;;;15.63;;
19867;SDS011;10096;51.112;6.776;2022-12-07T08:31:53;20.40;;;15.43;;
19867;SDS011;10096;51.112;6.776;2022-12-07T08:34:22;18.93;;;14.90;;
19867;SDS011;10096;51.112;6.776;2022-12-07T08:36:49;21.20;;;16.13;;
19867;SDS011;10096;51.112;6.776;2022-12-07T08:39:15;17.60;;;15.43;;
19867;SDS011;10096;51.112;6.776;2022-12-07T08:41:45;19.93;;;16.57;;
19867;SDS011;10096;51.112;6.776;2022-12-07T08:44:12;20.97;;;16.67;;
19867;SDS011;10096;51.112;6.776;2022-12-07T08:46:40;21.27;;;16.97;;
19867;SDS011;10096;51.112;6.776;2022-12-07T08:49:12;19.87;;;16.70;;
19867;SDS011;10096;51.112;6.776;2022-12-07T08:51:43;20.40;;;16.57;;
19867;SDS011;10096;51.112;6.776;2022-12-07T08:54:11;20.23;;;16.33;;
19867;SDS011;10096;51.112;6.776;2022-12-07T08:56:41;23.77;;;18.60;;
19867;SDS011;10096;51.112;6.776;2022-12-07T08:59:09;23.40;;;18.23;;
19867;SDS011;10096;51.112;6.776;2022-12-07T09:01:39;20.90;;;17.77;;
19867;SDS011;10096;51.112;6.776;2022-12-07T09:04:05;20.17;;;17.70;;
19867;SDS011;10096;51.112;6.776;2022-12-07T09:06:33;21.20;;;17.23;;
19867;SDS011;10096;51.112;6.776;2022-12-07T09:09:02;52.53;;;40.03;;
19867;SDS011;10096;51.112;6.776;2022-12-07T09:11:31;22.67;;;17.77;;
19867;SDS011;10096;51.112;6.776;2022-12-07T09:13:58;21.97;;;16.90;;
19867;SDS011;10096;51.112;6.776;2022-12-07T09:16:25;21.07;;;16.50;;
19867;SDS011;10096;51.112;6.776;2022-12-07T09:18:53;19.50;;;17.20;;
19867;SDS011;10096;51.112;6.776;2022-12-07T09:21:20;18.70;;;16.70;;
19867;SDS011;10096;51.112;6.776;2022-12-07T09:23:48;19.03;;;16.57;;
19867;SDS011;10096;51.112;6.776;2022-12-07T09:26:16;19.03;;;15.97;;
19867;SDS011;10096;51.112;6.776;2022-12-07T09:28:43;21.33;;;17.33;;
19867;SDS011;10096;51.112;6.776;2022-12-07T09:31:10;20.10;;;16.83;;
19867;SDS011;10096;51.112;6.776;2022-12-07T09:33:37;17.17;;;15.37;;
19867;SDS011;10096;51.112;6.776;2022-12-07T09:36:06;18.90;;;16.43;;
19867;SDS011;10096;51.112;6.776;2022-12-07T09:38:34;18.90;;;16.00;;
19867;SDS011;10096;51.112;6.776;2022-12-07T09:41:06;24.63;;;17.13;;
19867;SDS011;10096;51.112;6.776;2022-12-07T09:43:35;24.67;;;16.23;;
19867;SDS011;10096;51.112;6.776;2022-12-07T09:46:05;19.73;;;15.40;;
19867;SDS011;10096;51.112;6.776;2022-12-07T09:48:33;19.23;;;15.37;;
19867;SDS011;10096;51.112;6.776;2022-12-07T09:51:02;17.80;;;14.97;;
19867;SDS011;10096;51.112;6.776;2022-12-07T09:53:37;19.63;;;14.83;;
19867;SDS011;10096;51.112;6.776;2022-12-07T09:56:05;15.20;;;13.60;;
19867;SDS011;10096;51.112;6.776;2022-12-07T09:58:33;16.87;;;13.00;;
19867;SDS011;10096;51.112;6.776;2022-12-07T10:01:05;15.30;;;12.27;;
19867;SDS011;10096;51.112;6.776;2022-12-07T10:03:39;15.60;;;13.40;;
19867;SDS011;10096;51.112;6.776;2022-12-07T10:06:10;17.50;;;13.80;;
19867;SDS011;10096;51.112;6.776;2022-12-07T10:08:39;14.50;;;11.77;;
19867;SDS011;10096;51.112;6.776;2022-12-07T10:11:06;15.97;;;12.63;;
19867;SDS011;10096;51.112;6.776;2022-12-07T10:13:37;14.90;;;11.70;;
19867;SDS011;10096;51.112;6.776;2022-12-07T10:16:05;17.13;;;12.67;;
19867;SDS011;10096;51.112;6.776;2022-12-07T10:18:33;14.93;;;12.40;;
19867;SDS011;10096;51.112;6.776;2022-12-07T10:21:08;13.57;;;12.17;;
19867;SDS011;10096;51.112;6.776;2022-12-07T10:23:40;19.43;;;14.00;;
19867;SDS011;10096;51.112;6.776;2022-12-07T10:26:21;13.60;;;11.97;;
19867;SDS011;10096;51.112;6.776;2022-12-07T10:28:57;13.43;;;10.77;;
19867;SDS011;10096;51.112;6.776;2022-12-07T10:31:27;12.50;;;11.20;;
19867;SDS011;10096;51.112;6.776;2022-12-07T10:33:56;12.90;;;10.70;;
19867;SDS011;10096;51.112;6.776;2022-12-07T10:36:26;15.30;;;11.67;;
19867;SDS011;10096;51.112;6.776;2022-12-07T10:39:01;20.20;;;14.83;;
19867;SDS011;10096;51.112;6.776;2022-12-07T10:41:30;15.90;;;11.77;;
19867;SDS011;10096;51.112;6.776;2022-12-07T10:43:58;15.43;;;11.67;;
19867;SDS011;10096;51.112;6.776;2022-12-07T10:46:37;15.40;;;11.53;;
19867;SDS011;10096;51.112;6.776;2022-12-07T10:52:07;15.23;;;12.73;;
19867;SDS011;10096;51.112;6.776;2022-12-07T10:54:43;16.57;;;11.97;;
19867;SDS011;10096;51.112;6.776;2022-12-07T10:57:27;14.07;;;12.57;;
19867;SDS011;10096;51.112;6.776;2022-12-07T11:00:13;17.50;;;11.97;;
19867;SDS011;10096;51.112;6.776;2022-12-07T11:05:48;19.73;;;15.00;;
19867;SDS011;10096;51.112;6.776;2022-12-07T11:08:21;17.37;;;12.60;;
19867;SDS011;10096;51.112;6.776;2022-12-07T11:11:04;15.23;;;12.53;;
19867;SDS011;10096;51.112;6.776;2022-12-07T11:13:38;16.37;;;12.83;;
19867;SDS011;10096;51.112;6.776;2022-12-07T11:19:13;15.10;;;12.53;;
19867;SDS011;10096;51.112;6.776;2022-12-07T11:21:53;16.80;;;12.73;;
19867;SDS011;10096;51.112;6.776;2022-12-07T11:24:24;15.67;;;12.20;;
19867;SDS011;10096;51.112;6.776;2022-12-07T11:27:00;14.27;;;11.17;;
19867;SDS011;10096;51.112;6.776;2022-12-07T11:29:40;14.50;;;11.33;;
19867;SDS011;10096;51.112;6.776;2022-12-07T11:32:17;15.33;;;12.10;;
19867;SDS011;10096;51.112;6.776;2022-12-07T11:34:55;16.47;;;10.67;;
19867;SDS011;10096;51.112;6.776;2022-12-07T11:37:32;14.37;;;11.53;;
19867;SDS011;10096;51.112;6.776;2022-12-07T11:40:03;12.73;;;11.20;;
19867;SDS011;10096;51.112;6.776;2022-12-07T11:42:33;15.83;;;11.37;;
19867;SDS011;10096;51.112;6.776;2022-12-07T11:45:10;14.30;;;10.20;;
19867;SDS011;10096;51.112;6.776;2022-12-07T11:51:12;14.60;;;11.77;;
19867;SDS011;10096;51.112;6.776;2022-12-07T11:53:48;19.03;;;12.00;;
19867;SDS011;10096;51.112;6.776;2022-12-07T11:56:20;15.17;;;11.27;;
19867;SDS011;10096;51.112;6.776;2022-12-07T11:58:51;17.73;;;11.80;;
19867;SDS011;10096;51.112;6.776;2022-12-07T12:01:29;15.97;;;11.83;;
19867;SDS011;10096;51.112;6.776;2022-12-07T12:04:10;17.90;;;13.70;;
19867;SDS011;10096;51.112;6.776;2022-12-07T12:06:56;15.33;;;12.37;;
19867;SDS011;10096;51.112;6.776;2022-12-07T12:09:24;14.13;;;11.77;;
19867;SDS011;10096;51.112;6.776;2022-12-07T12:14:50;14.57;;;11.10;;
19867;SDS011;10096;51.112;6.776;2022-12-07T12:17:45;14.97;;;10.80;;
19867;SDS011;10096;51.112;6.776;2022-12-07T12:20:23;13.57;;;10.87;;
19867;SDS011;10096;51.112;6.776;2022-12-07T12:22:58;15.80;;;11.43;;
19867;SDS011;10096;51.112;6.776;2022-12-07T12:25:35;15.77;;;11.07;;
19867;SDS011;10096;51.112;6.776;2022-12-07T12:28:15;17.77;;;12.40;;
19867;SDS011;10096;51.112;6.776;2022-12-07T12:31:03;16.90;;;12.63;;
19867;SDS011;10096;51.112;6.776;2022-12-07T12:33:36;14.17;;;11.70;;
19867;SDS011;10096;51.112;6.776;2022-12-07T12:36:18;19.47;;;11.93;;
19867;SDS011;10096;51.112;6.776;2022-12-07T12:38:51;19.40;;;12.57;;
19867;SDS011;10096;51.112;6.776;2022-12-07T12:41:52;20.13;;;11.97;;
19867;SDS011;10096;51.112;6.776;2022-12-07T12:44:40;17.43;;;11.40;;
19867;SDS011;10096;51.112;6.776;2022-12-07T12:50:15;15.77;;;10.13;;
19867;SDS011;10096;51.112;6.776;2022-12-07T12:52:49;14.17;;;11.30;;
19867;SDS011;10096;51.112;6.776;2022-12-07T12:55:29;11.80;;;9.17;;
19867;SDS011;10096;51.112;6.776;2022-12-07T12:58:25;12.27;;;9.57;;
19867;SDS011;10096;51.112;6.776;2022-12-07T13:04:01;12.90;;;8.47;;
19867;SDS011;10096;51.112;6.776;2022-12-07T13:06:32;10.83;;;8.23;;
19867;SDS011;10096;51.112;6.776;2022-12-07T13:09:15;12.20;;;9.07;;
19867;SDS011;10096;51.112;6.776;2022-12-07T13:11:54;11.33;;;8.50;;
19867;SDS011;10096;51.112;6.776;2022-12-07T13:14:39;12.37;;;9.10;;
19867;SDS011;10096;51.112;6.776;2022-12-07T13:17:08;12.67;;;9.40;;
19867;SDS011;10096;51.112;6.776;2022-12-07T13:25:18;18.27;;;11.23;;
19867;SDS011;10096;51.112;6.776;2022-12-07T13:28:02;16.83;;;9.67;;
19867;SDS011;10096;51.112;6.776;2022-12-07T13:30:43;12.10;;;9.57;;
19867;SDS011;10096;51.112;6.776;2022-12-07T13:33:13;15.03;;;9.67;;
19867;SDS011;10096;51.112;6.776;2022-12-07T13:35:43;14.73;;;9.03;;
19867;SDS011;10096;51.112;6.776;2022-12-07T13:38:16;15.17;;;10.27;;
19867;SDS011;10096;51.112;6.776;2022-12-07T13:41:01;11.00;;;9.13;;
19867;SDS011;10096;51.112;6.776;2022-12-07T13:43:41;13.80;;;11.23;;
19867;SDS011;10096;51.112;6.776;2022-12-07T13:46:10;15.80;;;12.63;;
19867;SDS011;10096;51.112;6.776;2022-12-07T13:48:43;19.10;;;13.67;;
19867;SDS011;10096;51.112;6.776;2022-12-07T13:51:16;15.70;;;10.93;;
19867;SDS011;10096;51.112;6.776;2022-12-07T13:53:46;11.47;;;9.70;;
19867;SDS011;10096;51.112;6.776;2022-12-07T13:56:14;13.87;;;10.23;;
19867;SDS011;10096;51.112;6.776;2022-12-07T13:58:43;13.13;;;10.57;;
19867;SDS011;10096;51.112;6.776;2022-12-07T14:01:10;13.67;;;10.00;;
19867;SDS011;10096;51.112;6.776;2022-12-07T14:03:38;13.57;;;10.90;;
19867;SDS011;10096;51.112;6.776;2022-12-07T14:09:06;13.67;;;9.83;;
19867;SDS011;10096;51.112;6.776;2022-12-07T14:11:44;12.63;;;9.00;;
19867;SDS011;10096;51.112;6.776;2022-12-07T14:14:16;14.53;;;9.67;;
19867;SDS011;10096;51.112;6.776;2022-12-07T14:16:56;14.93;;;9.97;;
19867;SDS011;10096;51.112;6.776;2022-12-07T14:19:40;12.60;;;9.43;;
19867;SDS011;10096;51.112;6.776;2022-12-07T14:22:17;13.43;;;9.97;;
19867;SDS011;10096;51.112;6.776;2022-12-07T14:25:16;14.20;;;10.20;;
19867;SDS011;10096;51.112;6.776;2022-12-07T14:27:50;10.53;;;9.27;;
19867;SDS011;10096;51.112;6.776;2022-12-07T14:30:22;12.40;;;9.57;;
19867;SDS011;10096;51.112;6.776;2022-12-07T14:32:52;11.60;;;9.40;;
19867;SDS011;10096;51.112;6.776;2022-12-07T14:35:21;14.10;;;10.73;;
19867;SDS011;10096;51.112;6.776;2022-12-07T14:37:49;27.07;;;18.07;;
19867;SDS011;10096;51.112;6.776;2022-12-07T14:40:17;17.27;;;9.93;;
19867;SDS011;10096;51.112;6.776;2022-12-07T14:42:45;11.90;;;8.77;;
19867;SDS011;10096;51.112;6.776;2022-12-07T14:45:14;13.87;;;9.53;;
19867;SDS011;10096;51.112;6.776;2022-12-07T14:47:44;12.00;;;9.47;;
19867;SDS011;10096;51.112;6.776;2022-12-07T14:50:12;14.63;;;10.13;;
19867;SDS011;10096;51.112;6.776;2022-12-07T14:52:40;26.17;;;17.03;;
19867;SDS011;10096;51.112;6.776;2022-12-07T14:55:13;23.63;;;15.40;;
19867;SDS011;10096;51.112;6.776;2022-12-07T14:57:42;13.47;;;8.73;;
19867;SDS011;10096;51.112;6.776;2022-12-07T15:00:13;9.23;;;7.63;;
19867;SDS011;10096;51.112;6.776;2022-12-07T15:02:42;12.83;;;8.43;;
19867;SDS011;10096;51.112;6.776;2022-12-07T15:05:11;9.47;;;7.67;;
19867;SDS011;10096;51.112;6.776;2022-12-07T15:07:38;7.07;;;6.37;;
19867;SDS011;10096;51.112;6.776;2022-12-07T15:10:10;10.53;;;6.90;;
19867;SDS011;10096;51.112;6.776;2022-12-07T15:12:41;13.33;;;6.57;;
19867;SDS011;10096;51.112;6.776;2022-12-07T15:15:08;10.83;;;6.87;;
19867;SDS011;10096;51.112;6.776;2022-12-07T15:17:38;9.30;;;7.50;;